createdAt,value
2018-09-05T00:00:41.604Z,5.40
2018-09-05T00:03:10.352Z,5.20
2018-09-05T00:05:39.133Z,5.43
2018-09-05T00:08:08.566Z,5.47
2018-09-05T00:10:38.843Z,5.40
2018-09-05T00:13:07.929Z,5.37
2018-09-05T00:15:37.612Z,5.70
2018-09-05T00:18:07.412Z,5.07
2018-09-05T00:20:36.742Z,5.87
2018-09-05T00:23:08.855Z,5.13
2018-09-05T00:25:38.067Z,5.43
2018-09-05T00:28:08.581Z,5.50
2018-09-05T00:33:37.817Z,5.63
2018-09-05T00:36:08.072Z,4.83
2018-09-05T00:38:37.884Z,6.33
2018-09-05T00:41:07.365Z,4.90
2018-09-05T00:43:36.735Z,5.13
2018-09-05T00:46:06.083Z,5.27
2018-09-05T00:48:35.240Z,5.63
2018-09-05T00:51:04.728Z,5.37
2018-09-05T00:53:33.739Z,6.57
2018-09-05T00:56:32.983Z,5.77
2018-09-05T00:59:02.543Z,5.50
2018-09-05T01:01:32.502Z,5.13
2018-09-05T01:04:01.295Z,5.50
2018-09-05T01:06:30.141Z,6.53
2018-09-05T01:08:59.780Z,5.30
2018-09-05T01:11:28.636Z,5.70
2018-09-05T01:13:57.975Z,5.27
2018-09-05T01:16:26.779Z,6.10
2018-09-05T01:18:55.543Z,5.27
2018-09-05T01:21:24.359Z,5.93
2018-09-05T01:23:53.867Z,5.10
2018-09-05T01:26:22.719Z,5.90
2018-09-05T01:28:52.192Z,5.13
2018-09-05T01:31:21.305Z,5.90
2018-09-05T01:34:18.820Z,5.80
2018-09-05T01:36:48.574Z,5.17
2018-09-05T01:39:17.364Z,5.73
2018-09-05T01:41:46.839Z,5.20
2018-09-05T01:44:15.763Z,5.33
2018-09-05T01:46:44.517Z,5.50
2018-09-05T01:49:13.470Z,6.30
2018-09-05T01:51:42.248Z,5.50
2018-09-05T01:54:11.134Z,5.43
2018-09-05T01:56:39.975Z,6.10
2018-09-05T01:59:09.941Z,5.70
2018-09-05T02:01:39.412Z,6.40
2018-09-05T02:04:08.344Z,5.53
2018-09-05T02:06:37.614Z,5.63
2018-09-05T02:09:11.580Z,5.87
2018-09-05T02:11:41.005Z,6.10
2018-09-05T02:14:10.480Z,6.50
2018-09-05T02:16:39.429Z,5.87
2018-09-05T02:19:08.530Z,5.70
2018-09-05T02:21:37.755Z,6.10
2018-09-05T02:24:07.571Z,6.37
2018-09-05T02:26:37.200Z,6.30
2018-09-05T02:29:07.059Z,6.03
2018-09-05T02:31:36.573Z,6.40
2018-09-05T02:34:06.472Z,6.50
2018-09-05T02:36:36.003Z,6.07
2018-09-05T02:39:07.412Z,6.33
2018-09-05T02:41:36.479Z,6.60
2018-09-05T02:44:10.520Z,6.13
2018-09-05T02:46:39.505Z,5.87
2018-09-05T02:49:08.469Z,5.87
2018-09-05T02:51:38.476Z,5.53
2018-09-05T02:54:07.850Z,6.00
2018-09-05T02:56:37.107Z,5.87
2018-09-05T02:59:07.099Z,5.67
2018-09-05T03:01:36.881Z,5.63
2018-09-05T03:04:06.292Z,5.77
2018-09-05T03:06:35.417Z,6.37
2018-09-05T03:09:07.648Z,5.53
2018-09-05T03:11:36.875Z,5.50
2018-09-05T03:14:06.130Z,5.33
2018-09-05T03:16:35.282Z,6.10
2018-09-05T03:19:04.726Z,5.60
2018-09-05T03:21:33.603Z,6.27
2018-09-05T03:24:02.894Z,5.23
2018-09-05T03:26:31.681Z,5.63
2018-09-05T03:29:00.910Z,5.50
2018-09-05T03:31:29.749Z,6.17
2018-09-05T03:33:59.244Z,5.63
2018-09-05T03:36:28.619Z,5.93
2018-09-05T03:38:57.454Z,5.90
2018-09-05T03:41:26.731Z,6.03
2018-09-05T03:43:55.491Z,5.37
2018-09-05T03:46:24.328Z,6.30
2018-09-05T03:48:53.163Z,5.27
2018-09-05T03:51:21.941Z,5.90
2018-09-05T03:53:51.688Z,5.40
2018-09-05T03:56:20.603Z,6.17
2018-09-05T03:58:50.083Z,5.60
2018-09-05T04:01:19.900Z,7.07
2018-09-05T04:03:49.088Z,5.40
2018-09-05T04:06:21.223Z,5.57
2018-09-05T04:08:52.920Z,5.70
2018-09-05T04:11:21.730Z,5.50
2018-09-05T04:13:51.174Z,4.80
2018-09-05T04:16:20.178Z,6.30
2018-09-05T04:18:49.657Z,5.67
2018-09-05T04:21:18.679Z,6.10
2018-09-05T04:23:49.617Z,5.27
2018-09-05T04:26:19.612Z,5.27
2018-09-05T04:28:49.497Z,4.87
2018-09-05T04:31:18.545Z,5.93
2018-09-05T04:33:48.077Z,5.20
2018-09-05T04:36:16.886Z,5.60
2018-09-05T04:38:46.263Z,5.13
2018-09-05T04:41:14.996Z,5.60
2018-09-05T04:43:43.889Z,4.93
2018-09-05T04:46:12.779Z,5.13
2018-09-05T04:48:41.573Z,5.50
2018-09-05T04:51:10.487Z,6.10
2018-09-05T04:53:39.482Z,5.37
2018-09-05T04:56:08.347Z,6.00
2018-09-05T04:58:38.952Z,5.40
2018-09-05T05:01:08.280Z,6.03
2018-09-05T05:03:38.474Z,5.10
2018-09-05T05:06:07.827Z,6.67
2018-09-05T05:08:38.492Z,6.20
2018-09-05T05:11:08.398Z,6.33
2018-09-05T05:13:37.960Z,6.53
2018-09-05T05:16:07.715Z,7.13
2018-09-05T05:18:37.492Z,6.00
2018-09-05T05:21:06.781Z,7.20
2018-09-05T05:23:37.252Z,6.17
2018-09-05T05:26:06.715Z,7.07
2018-09-05T05:28:37.270Z,6.27
2018-09-05T05:31:07.321Z,6.80
2018-09-05T05:33:38.144Z,7.00
2018-09-05T05:36:08.199Z,7.50
2018-09-05T05:38:38.561Z,6.10
2018-09-05T05:41:07.835Z,6.33
2018-09-05T05:43:37.395Z,6.20
2018-09-05T05:46:06.428Z,6.70
2018-09-05T05:48:36.136Z,5.90
2018-09-05T05:51:05.679Z,6.23
2018-09-05T05:53:34.768Z,5.60
2018-09-05T05:56:03.615Z,6.87
2018-09-05T05:58:32.995Z,6.20
2018-09-05T06:01:02.595Z,6.47
2018-09-05T06:03:31.957Z,5.70
2018-09-05T06:06:00.906Z,6.37
2018-09-05T06:08:30.761Z,5.87
2018-09-05T06:10:59.875Z,5.33
2018-09-05T06:13:28.816Z,5.13
2018-09-05T06:15:57.985Z,5.50
2018-09-05T06:18:26.803Z,5.20
2018-09-05T06:20:55.657Z,6.07
2018-09-05T06:23:25.429Z,5.20
2018-09-05T06:25:54.243Z,5.70
2018-09-05T06:28:23.506Z,4.97
2018-09-05T06:30:52.600Z,5.97
2018-09-05T06:33:21.975Z,6.13
2018-09-05T06:35:51.504Z,5.60
2018-09-05T06:38:21.143Z,5.97
2018-09-05T06:40:50.594Z,5.80
2018-09-05T06:43:19.564Z,5.20
2018-09-05T06:45:48.600Z,5.23
2018-09-05T06:48:17.532Z,4.97
2018-09-05T06:50:46.452Z,5.00
2018-09-05T06:53:15.627Z,5.87
2018-09-05T06:55:44.420Z,5.30
2018-09-05T06:58:14.103Z,5.53
2018-09-05T07:00:42.899Z,5.30
2018-09-05T07:03:12.700Z,5.50
2018-09-05T07:05:41.527Z,5.10
2018-09-05T07:08:10.309Z,5.67
2018-09-05T07:10:39.844Z,5.20
2018-09-05T07:13:08.613Z,5.67
2018-09-05T07:15:38.323Z,4.70
2018-09-05T07:18:07.797Z,5.53
2018-09-05T07:20:37.000Z,4.90
2018-09-05T07:23:07.076Z,5.23
2018-09-05T07:25:35.955Z,5.33
2018-09-05T07:28:05.995Z,4.97
2018-09-05T07:30:34.848Z,4.67
2018-09-05T07:33:04.094Z,5.27
2018-09-05T07:35:33.326Z,5.20
2018-09-05T07:38:02.545Z,5.17
2018-09-05T07:40:31.275Z,5.47
2018-09-05T07:43:00.066Z,5.17
2018-09-05T07:45:28.908Z,4.57
2018-09-05T07:47:57.741Z,5.13
2018-09-05T07:50:26.629Z,4.40
2018-09-05T07:52:55.533Z,5.30
2018-09-05T07:55:25.016Z,5.63
2018-09-05T07:57:54.800Z,5.13
2018-09-05T08:00:23.596Z,5.30
2018-09-05T08:02:52.932Z,5.43
2018-09-05T08:05:21.793Z,4.93
2018-09-05T08:07:50.822Z,5.77
2018-09-05T08:10:20.424Z,4.87
2018-09-05T08:12:49.541Z,5.40
2018-09-05T08:15:18.471Z,4.97
2018-09-05T08:17:47.584Z,5.60
2018-09-05T08:20:16.307Z,4.60
2018-09-05T08:22:45.803Z,5.27
2018-09-05T08:25:14.551Z,5.00
2018-09-05T08:27:45.079Z,4.73
2018-09-05T08:30:13.844Z,4.97
2018-09-05T08:32:43.387Z,4.70
2018-09-05T08:35:13.033Z,4.37
2018-09-05T08:37:42.858Z,4.27
2018-09-05T08:40:11.510Z,4.57
2018-09-05T08:42:40.464Z,4.47
2018-09-05T08:45:09.474Z,4.83
2018-09-05T08:47:38.390Z,3.80
2018-09-05T08:50:07.708Z,3.73
2018-09-05T08:52:37.092Z,3.83
2018-09-05T08:55:06.997Z,4.57
2018-09-05T08:57:37.333Z,3.97
2018-09-05T09:00:07.525Z,4.17
2018-09-05T09:02:37.403Z,4.03
2018-09-05T09:05:07.304Z,4.43
2018-09-05T09:07:36.395Z,3.90
2018-09-05T09:10:06.976Z,4.13
2018-09-05T09:12:36.541Z,4.10
2018-09-05T09:15:07.356Z,4.37
2018-09-05T09:17:36.600Z,3.77
2018-09-05T09:20:05.740Z,4.10
2018-09-05T09:22:35.732Z,3.70
2018-09-05T09:25:19.440Z,4.10
2018-09-05T09:27:49.267Z,4.27
2018-09-05T09:30:18.063Z,3.97
2018-09-05T09:32:48.535Z,4.53
2018-09-05T09:35:49.145Z,4.43
2018-09-05T09:38:18.683Z,3.80
2018-09-05T09:40:48.162Z,3.73
2018-09-05T09:43:16.924Z,4.00
2018-09-05T09:45:45.743Z,4.10
2018-09-05T09:48:14.502Z,4.10
2018-09-05T09:50:44.274Z,4.03
2018-09-05T09:53:13.005Z,4.60
2018-09-05T09:55:41.807Z,4.00
2018-09-05T09:58:11.141Z,4.30
2018-09-05T10:00:44.877Z,4.07
2018-09-05T10:03:19.327Z,3.67
2018-09-05T10:05:53.251Z,3.97
2018-09-05T10:10:34.261Z,4.30
2018-09-05T10:13:09.447Z,4.00
2018-09-05T10:15:43.419Z,3.93
2018-09-05T10:18:17.276Z,4.37
2018-09-05T10:20:46.130Z,4.00
2018-09-05T10:23:15.486Z,4.87
2018-09-05T10:25:44.353Z,4.47
2018-09-05T10:28:13.774Z,4.70
2018-09-05T10:30:42.644Z,4.63
2018-09-05T10:33:11.973Z,4.60
2018-09-05T10:35:41.360Z,4.57
2018-09-05T10:38:10.724Z,5.30
2018-09-05T10:40:39.501Z,4.30
2018-09-05T10:43:08.487Z,4.80
2018-09-05T10:45:37.899Z,4.53
2018-09-05T10:48:08.245Z,4.40
2018-09-05T10:50:37.842Z,4.67
2018-09-05T10:53:07.830Z,4.80
2018-09-05T10:55:37.361Z,4.43
2018-09-05T10:58:07.527Z,4.70
2018-09-05T11:00:36.794Z,4.00
2018-09-05T11:03:07.105Z,4.13
2018-09-05T11:05:36.381Z,4.63
2018-09-05T11:08:06.010Z,4.50
2018-09-05T11:10:36.356Z,4.27
2018-09-05T11:13:05.492Z,4.20
2018-09-05T11:15:36.094Z,4.27
2018-09-05T11:18:05.775Z,4.27
2018-09-05T11:20:34.940Z,4.70
2018-09-05T11:23:04.268Z,4.23
2018-09-05T11:25:33.218Z,4.30
2018-09-05T11:28:02.925Z,4.50
2018-09-05T11:30:31.767Z,4.70
2018-09-05T11:33:01.086Z,4.70
2018-09-05T11:35:30.366Z,4.43
2018-09-05T11:37:59.842Z,4.20
2018-09-05T11:40:28.709Z,4.67
2018-09-05T11:42:57.578Z,4.00
2018-09-05T11:46:29.663Z,4.80
2018-09-05T11:48:58.457Z,3.93
2018-09-05T11:51:27.302Z,5.03
2018-09-05T11:53:56.037Z,4.10
2018-09-05T11:56:24.811Z,4.33
2018-09-05T11:58:54.405Z,3.83
2018-09-05T12:01:24.060Z,5.17
2018-09-05T12:03:52.848Z,3.90
2018-09-05T12:06:21.671Z,4.27
2018-09-05T12:08:51.195Z,4.07
2018-09-05T12:11:20.124Z,5.07
2018-09-05T12:13:49.174Z,3.80
2018-09-05T12:16:18.102Z,5.07
2018-09-05T12:18:46.896Z,4.67
2018-09-05T12:21:16.071Z,4.80
2018-09-05T12:23:45.595Z,3.70
2018-09-05T12:26:14.486Z,4.17
2018-09-05T12:28:44.041Z,3.80
2018-09-05T12:31:13.733Z,5.17
2018-09-05T12:33:43.150Z,4.33
2018-09-05T12:36:12.531Z,4.20
2018-09-05T12:38:41.368Z,3.87
2018-09-05T12:41:10.490Z,4.40
2018-09-05T12:43:39.947Z,3.50
2018-09-05T12:46:08.775Z,3.93
2018-09-05T12:48:38.395Z,3.20
2018-09-05T12:51:08.465Z,4.03
2018-09-05T12:53:37.753Z,3.87
2018-09-05T12:56:07.635Z,3.83
2018-09-05T12:58:37.291Z,3.90
2018-09-05T13:01:06.899Z,4.07
2018-09-05T13:03:36.813Z,3.80
2018-09-05T13:06:06.755Z,3.50
2018-09-05T13:08:37.227Z,4.77
2018-09-05T13:11:06.708Z,4.00
2018-09-05T13:13:35.701Z,4.13
2018-09-05T13:16:04.696Z,3.90
2018-09-05T13:18:34.007Z,4.30
2018-09-05T13:21:02.923Z,4.20
2018-09-05T13:23:33.811Z,4.37
2018-09-05T13:26:02.590Z,4.27
2018-09-05T13:28:31.972Z,3.90
2018-09-05T13:31:00.844Z,4.07
2018-09-05T13:33:30.129Z,3.63
2018-09-05T13:35:59.807Z,4.10
2018-09-05T13:38:30.656Z,4.30
2018-09-05T13:41:00.978Z,4.20
2018-09-05T13:43:29.991Z,3.90
2018-09-05T13:45:58.833Z,3.87
2018-09-05T13:48:27.624Z,3.87
2018-09-05T13:50:57.160Z,4.10
2018-09-05T13:53:25.947Z,3.63
2018-09-05T13:55:54.803Z,4.07
2018-09-05T13:58:24.254Z,3.57
2018-09-05T14:00:53.016Z,4.07
2018-09-05T14:03:22.477Z,3.23
2018-09-05T14:05:52.115Z,3.87
2018-09-05T14:08:21.311Z,3.50
2018-09-05T14:10:51.620Z,3.50
2018-09-05T14:13:20.656Z,3.80
2018-09-05T14:15:49.664Z,3.57
2018-09-05T14:18:19.236Z,4.00
2018-09-05T14:20:48.024Z,3.60
2018-09-05T14:23:17.524Z,3.67
2018-09-05T14:25:46.314Z,3.60
2018-09-05T14:28:15.804Z,4.10
2018-09-05T14:30:44.598Z,3.83
2018-09-05T14:33:13.981Z,3.80
2018-09-05T14:35:43.301Z,3.93
2018-09-05T14:38:12.834Z,4.13
2018-09-05T14:40:42.196Z,4.50
2018-09-05T14:43:10.988Z,4.07
2018-09-05T14:45:40.412Z,4.33
2018-09-05T14:48:09.271Z,4.13
2018-09-05T14:50:38.953Z,3.70
2018-09-05T14:53:09.949Z,4.60
2018-09-05T14:55:38.818Z,5.77
2018-09-05T14:58:08.907Z,3.27
2018-09-05T15:00:38.029Z,5.00
2018-09-05T15:03:10.577Z,3.83
2018-09-05T15:05:40.116Z,4.17
2018-09-05T15:08:09.789Z,4.20
2018-09-05T15:10:41.206Z,5.20
2018-09-05T15:13:10.889Z,4.20
2018-09-05T15:15:40.934Z,5.07
2018-09-05T15:18:10.344Z,4.57
2018-09-05T15:20:39.086Z,4.67
2018-09-05T15:23:09.560Z,5.00
2018-09-05T15:25:39.120Z,6.13
2018-09-05T15:28:08.542Z,4.27
2018-09-05T15:30:38.065Z,4.60
2018-09-05T15:33:08.397Z,4.00
2018-09-05T15:35:38.082Z,4.13
2018-09-05T15:38:07.932Z,4.10
2018-09-05T15:40:37.585Z,5.93
2018-09-05T15:43:07.290Z,4.53
2018-09-05T15:45:36.861Z,4.97
2018-09-05T15:48:06.285Z,4.90
2018-09-05T15:50:38.599Z,4.27
2018-09-05T15:53:09.991Z,4.20
2018-09-05T15:55:38.960Z,4.47
2018-09-05T15:58:08.860Z,4.17
2018-09-05T16:00:39.020Z,4.77
2018-09-05T16:03:08.500Z,3.87
2018-09-05T16:05:37.671Z,4.60
2018-09-05T16:08:07.588Z,4.13
2018-09-05T16:10:37.938Z,4.77
2018-09-05T16:13:07.444Z,3.77
2018-09-05T16:15:37.405Z,4.70
2018-09-05T16:18:10.217Z,4.00
2018-09-05T16:20:39.001Z,4.67
2018-09-05T16:23:08.447Z,4.27
2018-09-05T16:25:38.051Z,5.13
2018-09-05T16:28:08.310Z,4.20
2018-09-05T16:30:37.577Z,4.70
2018-09-05T16:33:07.782Z,4.07
2018-09-05T16:35:38.170Z,4.53
2018-09-05T16:38:08.277Z,4.53
2018-09-05T16:40:37.759Z,5.73
2018-09-05T16:43:07.441Z,4.87
2018-09-05T16:45:37.127Z,4.53
2018-09-05T16:48:06.459Z,5.53
2018-09-05T16:50:36.521Z,4.30
2018-09-05T16:53:05.879Z,4.57
2018-09-05T16:55:35.212Z,4.07
2018-09-05T16:58:05.203Z,5.03
2018-09-05T17:00:33.967Z,4.23
2018-09-05T17:03:17.981Z,5.63
2018-09-05T17:05:47.310Z,4.07
2018-09-05T17:08:16.083Z,4.60
2018-09-05T17:10:45.357Z,4.10
2018-09-05T17:13:14.119Z,4.70
2018-09-05T17:15:42.965Z,3.93
2018-09-05T17:18:12.712Z,4.57
2018-09-05T17:20:41.536Z,4.67
2018-09-05T17:23:10.820Z,4.77
2018-09-05T17:25:39.671Z,4.67
2018-09-05T17:28:09.133Z,4.73
2018-09-05T17:30:38.856Z,6.70
2018-09-05T17:33:08.540Z,4.50
2018-09-05T17:35:38.971Z,4.97
2018-09-05T17:38:08.920Z,5.40
2018-09-05T17:40:38.045Z,5.20
2018-09-05T17:43:07.341Z,4.50
2018-09-05T17:45:36.653Z,5.07
2018-09-05T17:48:05.827Z,4.80
2018-09-05T17:50:34.826Z,6.10
2018-09-05T17:53:18.474Z,4.30
2018-09-05T17:55:47.379Z,5.10
2018-09-05T17:58:17.012Z,4.60
2018-09-05T18:00:45.845Z,5.13
2018-09-05T18:03:15.309Z,4.23
2018-09-05T18:05:44.155Z,5.97
2018-09-05T18:08:13.080Z,4.43
2018-09-05T18:10:42.307Z,5.60
2018-09-05T18:13:11.065Z,4.73
2018-09-05T18:15:40.661Z,4.73
2018-09-05T18:18:10.109Z,4.73
2018-09-05T18:20:38.959Z,5.53
2018-09-05T18:23:09.392Z,4.77
2018-09-05T18:25:45.003Z,5.40
2018-09-05T18:28:14.627Z,5.77
2018-09-05T18:30:44.029Z,6.37
2018-09-05T18:33:13.578Z,5.40
2018-09-05T18:35:43.319Z,6.27
2018-09-05T18:38:12.507Z,4.57
2018-09-05T18:40:41.281Z,5.73
2018-09-05T18:43:10.109Z,5.00
2018-09-05T18:45:38.948Z,5.77
2018-09-05T18:48:08.364Z,5.73
2018-09-05T18:50:37.775Z,8.20
2018-09-05T18:53:12.481Z,6.47
2018-09-05T18:55:42.746Z,5.33
2018-09-05T18:58:12.166Z,5.53
2018-09-05T19:00:41.015Z,4.97
2018-09-05T19:03:11.131Z,5.50
2018-09-05T19:05:41.403Z,5.90
2018-09-05T19:08:10.214Z,5.73
2018-09-05T19:10:39.611Z,5.73
2018-09-05T19:13:08.404Z,5.73
2018-09-05T19:15:37.884Z,4.90
2018-09-05T19:18:07.664Z,5.00
2018-09-05T19:20:38.373Z,5.37
2018-09-05T19:23:08.139Z,5.63
2018-09-05T19:25:38.438Z,5.67
2018-09-05T19:28:08.085Z,5.43
2018-09-05T19:30:37.435Z,5.20
2018-09-05T19:33:07.416Z,6.23
2018-09-05T19:35:38.248Z,5.90
2018-09-05T19:38:08.569Z,5.47
2018-09-05T19:40:37.950Z,5.33
2018-09-05T19:43:07.161Z,5.80
2018-09-05T19:45:36.371Z,5.43
2018-09-05T19:48:05.551Z,6.07
2018-09-05T19:50:34.626Z,4.90
2018-09-05T19:53:03.620Z,5.67
2018-09-05T19:55:32.496Z,5.30
2018-09-05T19:58:02.183Z,5.37
2018-09-05T20:00:30.970Z,5.77
2018-09-05T20:03:00.472Z,5.87
2018-09-05T20:05:29.322Z,4.70
2018-09-05T20:07:58.126Z,6.10
2018-09-05T20:10:27.505Z,5.30
2018-09-05T20:12:56.368Z,5.40
2018-09-05T20:15:25.828Z,5.30
2018-09-05T20:17:55.304Z,5.77
2018-09-05T20:20:24.198Z,5.20
2018-09-05T20:22:54.208Z,7.10
2018-09-05T20:25:23.635Z,6.30
2018-09-05T20:27:53.015Z,5.50
2018-09-05T20:30:22.775Z,5.73
2018-09-05T20:32:52.502Z,6.47
2018-09-05T20:35:22.082Z,6.90
2018-09-05T20:37:51.525Z,6.43
2018-09-05T20:40:20.511Z,7.07
2018-09-05T20:42:49.568Z,6.43
2018-09-05T20:45:18.578Z,6.50
2018-09-05T20:47:47.372Z,5.87
2018-09-05T20:50:16.462Z,6.73
2018-09-05T20:52:45.235Z,6.73
2018-09-05T20:55:14.040Z,6.50
2018-09-05T20:57:43.604Z,5.80
2018-09-05T21:00:12.412Z,5.67
2018-09-05T21:02:41.883Z,6.23
2018-09-05T21:05:11.322Z,5.93
2018-09-05T21:07:40.116Z,6.30
2018-09-05T21:10:09.460Z,6.30
2018-09-05T21:12:38.432Z,5.83
2018-09-05T21:15:07.685Z,6.17
2018-09-05T21:17:37.439Z,6.60
2018-09-05T21:20:06.985Z,6.13
2018-09-05T21:22:36.920Z,6.30
2018-09-05T21:25:07.220Z,5.90
2018-09-05T21:27:36.622Z,6.00
2018-09-05T21:30:06.633Z,5.80
2018-09-05T21:32:36.451Z,6.03
2018-09-05T21:35:06.287Z,6.20
2018-09-05T21:37:36.460Z,6.03
2018-09-05T21:40:05.881Z,5.90
2018-09-05T21:42:34.868Z,5.90
2018-09-05T21:45:34.278Z,5.87
2018-09-05T21:48:03.312Z,5.47
2018-09-05T21:50:32.183Z,6.30
2018-09-05T21:53:01.291Z,5.30
2018-09-05T21:55:30.692Z,7.23
2018-09-05T21:58:00.468Z,5.27
2018-09-05T22:00:29.447Z,6.40
2018-09-05T22:02:59.339Z,5.40
2018-09-05T22:05:28.532Z,6.13
2018-09-05T22:07:57.451Z,5.60
2018-09-05T22:10:26.767Z,6.20
2018-09-05T22:12:55.556Z,5.97
2018-09-05T22:15:25.008Z,5.90
2018-09-05T22:17:54.386Z,5.63
2018-09-05T22:20:23.807Z,5.80
2018-09-05T22:22:53.091Z,5.53
2018-09-05T22:25:22.099Z,5.80
2018-09-05T22:27:51.572Z,6.17
2018-09-05T22:30:21.235Z,5.80
2018-09-05T22:32:50.862Z,6.00
2018-09-05T22:35:20.582Z,5.73
2018-09-05T22:37:50.249Z,5.43
2018-09-05T22:40:19.559Z,6.23
2018-09-05T22:42:59.539Z,5.37
2018-09-05T22:45:39.335Z,6.20
2018-09-05T22:48:22.701Z,5.47
2018-09-05T22:51:07.703Z,5.17
2018-09-05T22:53:54.478Z,6.27
2018-09-05T22:57:39.490Z,6.10
2018-09-05T23:00:23.329Z,5.30
2018-09-05T23:03:05.660Z,5.63
2018-09-05T23:08:50.192Z,5.70
2018-09-05T23:12:00.291Z,5.40
2018-09-05T23:14:41.185Z,5.17
2018-09-05T23:18:21.532Z,6.10
2018-09-05T23:21:19.433Z,6.23
2018-09-05T23:23:56.854Z,6.67
2018-09-05T23:26:25.992Z,5.40
2018-09-05T23:28:55.417Z,6.53
2018-09-05T23:31:24.577Z,6.00
2018-09-05T23:33:54.280Z,6.90
2018-09-05T23:36:24.080Z,6.33
2018-09-05T23:38:52.949Z,6.20
2018-09-05T23:41:22.137Z,6.20
2018-09-05T23:43:51.395Z,7.07
2018-09-05T23:46:20.397Z,6.27
2018-09-05T23:48:49.587Z,6.43
2018-09-05T23:51:18.382Z,6.07
2018-09-05T23:53:47.210Z,6.30
2018-09-05T23:56:16.078Z,6.17
2018-09-05T23:58:45.640Z,6.10
